Time;durP1;ratioP1;P1;durP2;ratioP2;P2;SDS_P1;SDS_P2;PMS_P1;PMS_P2;Temp;Humidity;BMP_temperature;BMP_pressure;BME280_temperature;BME280_humidity;BME280_pressure;Samples;Min_cycle;Max_cycle;Signal;HPM_P1;HPM_P2
2023/04/28 00:01:48;;;;;;;21.10;11.30;;;;;;;2.22;74.70;101021.00;105334;280;38833;-74
2023/04/28 00:04:22;;;;;;;15.40;11.60;;;;;;;2.21;74.83;101022.73;105733;280;38547;-74
2023/04/28 00:06:56;;;;;;;18.10;12.40;;;;;;;2.15;74.77;101024.06;105689;280;38844;-74
2023/04/28 00:09:30;;;;;;;19.40;10.30;;;;;;;2.09;74.78;101025.23;105195;269;38701;-74
2023/04/28 00:12:05;;;;;;;16.50;10.00;;;;;;;2.04;74.67;101025.20;105212;280;38483;-74
2023/04/28 00:14:39;;;;;;;17.50;10.60;;;;;;;1.96;74.53;101027.70;105282;280;39678;-74
2023/04/28 00:17:13;;;;;;;15.80;11.10;;;;;;;1.91;74.62;101031.45;105674;280;39971;-74
2023/04/28 00:19:47;;;;;;;15.90;10.50;;;;;;;1.87;74.91;101028.85;105709;279;39624;-74
2023/04/28 00:22:21;;;;;;;16.40;11.00;;;;;;;1.79;74.70;101027.40;105707;280;39924;-74
2023/04/28 00:24:55;;;;;;;19.10;11.80;;;;;;;1.68;74.70;101026.80;105335;280;38430;-73
2023/04/28 00:27:28;;;;;;;17.90;10.60;;;;;;;1.60;74.84;101026.73;105324;280;39015;-73
2023/04/28 00:30:02;;;;;;;19.40;11.40;;;;;;;1.56;74.77;101025.65;105289;280;39421;-73
2023/04/28 00:32:36;;;;;;;18.80;12.10;;;;;;;1.52;74.76;101026.64;105714;280;38442;-73
2023/04/28 00:35:11;;;;;;;18.60;12.50;;;;;;;1.50;74.93;101025.61;105342;280;38265;-73
2023/04/28 00:37:45;;;;;;;18.60;12.50;;;;;;;1.49;74.94;101029.20;105699;280;39953;-73
2023/04/28 00:40:19;;;;;;;23.80;13.30;;;;;;;1.42;74.94;101031.38;105315;279;38874;-73
2023/04/28 00:42:53;;;;;;;18.60;11.90;;;;;;;1.38;75.06;101032.01;105279;280;38584;-73
2023/04/28 00:45:27;;;;;;;20.30;12.30;;;;;;;1.31;75.05;101030.91;105699;279;39895;-73
2023/04/28 00:48:02;;;;;;;22.30;12.10;;;;;;;1.28;75.42;101029.33;105337;280;39477;-73
2023/04/28 00:50:36;;;;;;;19.40;12.50;;;;;;;1.30;75.58;101030.05;105302;280;39466;-73
2023/04/28 00:53:10;;;;;;;22.40;13.90;;;;;;;1.30;75.48;101032.11;105321;279;38742;-73
2023/04/28 00:55:44;;;;;;;22.30;13.50;;;;;;;1.28;75.47;101031.39;105349;279;38508;-73
2023/04/28 00:58:17;;;;;;;22.00;13.80;;;;;;;1.23;75.40;101033.06;105184;279;174937;-73
2023/04/28 01:00:51;;;;;;;23.70;13.20;;;;;;;1.18;75.36;101035.05;105306;279;39402;-73
2023/04/28 01:03:25;;;;;;;17.40;11.40;;;;;;;1.14;75.33;101039.48;105291;279;38564;-73
2023/04/28 01:05:59;;;;;;;18.40;11.70;;;;;;;1.08;75.28;101039.77;105706;279;38337;-73
2023/04/28 01:08:35;;;;;;;18.40;12.40;;;;;;;1.03;75.31;101036.97;105718;280;39689;-73
2023/04/28 01:11:12;;;;;;;21.20;12.60;;;;;;;0.99;75.45;101038.64;105234;280;41335;-73
2023/04/28 01:13:46;;;;;;;20.20;12.50;;;;;;;0.97;75.41;101044.63;105334;279;38272;-73
2023/04/28 01:16:20;;;;;;;21.00;12.80;;;;;;;0.90;75.44;101041.45;105694;280;38474;-73
2023/04/28 01:18:54;;;;;;;20.40;12.40;;;;;;;0.84;75.64;101046.02;105330;280;39715;-73
2023/04/28 01:21:32;;;;;;;19.60;12.30;;;;;;;0.81;75.53;101047.69;105314;279;38457;-73
2023/04/28 01:24:07;;;;;;;19.10;12.40;;;;;;;0.73;75.47;101044.34;105335;279;38423;-73
2023/04/28 01:26:42;;;;;;;19.60;12.30;;;;;;;0.72;75.73;101047.23;105701;279;38243;-73
2023/04/28 01:29:16;;;;;;;19.80;12.80;;;;;;;0.69;75.60;101045.98;105311;279;38464;-73
2023/04/28 01:31:50;;;;;;;20.20;13.50;;;;;;;0.61;75.42;101044.86;105295;280;38493;-73
2023/04/28 01:34:25;;;;;;;20.00;12.90;;;;;;;0.55;75.58;101044.93;104733;279;777916;-73
2023/04/28 01:37:00;;;;;;;21.70;12.80;;;;;;;0.52;75.65;101049.20;105320;280;38490;-73
2023/04/28 01:39:34;;;;;;;19.40;12.20;;;;;;;0.49;75.89;101046.77;105277;280;39464;-73
2023/04/28 01:42:09;;;;;;;20.40;12.10;;;;;;;0.50;75.92;101052.09;105314;280;38755;-73
2023/04/28 01:44:43;;;;;;;19.90;12.60;;;;;;;0.50;76.00;101053.46;105306;280;38534;-73
2023/04/28 01:47:17;;;;;;;23.40;14.10;;;;;;;0.48;76.04;101052.41;105329;280;38415;-73
2023/04/28 01:49:51;;;;;;;21.20;13.10;;;;;;;0.45;76.07;101054.60;105679;280;38566;-73
2023/04/28 01:52:26;;;;;;;21.30;13.00;;;;;;;0.39;76.02;101054.35;105287;284;38474;-73
2023/04/28 01:55:00;;;;;;;21.70;12.20;;;;;;;0.35;76.15;101057.20;105284;280;38247;-73
2023/04/28 01:57:35;;;;;;;22.20;12.90;;;;;;;0.34;76.42;101055.30;105187;280;172483;-73
2023/04/28 02:00:11;;;;;;;21.20;12.80;;;;;;;0.34;76.30;101053.76;105605;280;172554;-73
2023/04/28 02:02:45;;;;;;;21.90;13.30;;;;;;;0.33;76.38;101054.09;105339;280;38541;-73
2023/04/28 02:05:19;;;;;;;23.10;14.70;;;;;;;0.31;76.47;101052.16;105697;280;38423;-73
2023/04/28 02:07:53;;;;;;;20.70;13.00;;;;;;;0.27;76.35;101048.85;105309;280;38236;-73
2023/04/28 02:10:27;;;;;;;20.50;12.60;;;;;;;0.19;76.41;101047.35;105695;280;39634;-73
2023/04/28 02:13:01;;;;;;;18.10;11.80;;;;;;;0.14;76.43;101048.48;105314;280;38802;-73
2023/04/28 02:15:35;;;;;;;18.70;11.80;;;;;;;0.12;76.51;101048.45;105292;280;39619;-73
2023/04/28 02:18:09;;;;;;;18.40;12.60;;;;;;;0.11;76.60;101045.67;105310;280;39412;-73
2023/04/28 02:20:43;;;;;;;20.20;13.40;;;;;;;0.12;77.00;101051.02;105201;280;175078;-73
2023/04/28 02:23:17;;;;;;;23.80;13.90;;;;;;;0.11;77.03;101052.02;105663;280;38566;-73
2023/04/28 02:25:51;;;;;;;26.50;14.30;;;;;;;0.09;77.07;101054.91;105718;280;39994;-73
2023/04/28 02:28:25;;;;;;;22.30;13.60;;;;;;;0.04;77.17;101059.80;105329;280;38400;-72
2023/04/28 02:31:09;;;;;;;21.70;12.90;;;;;;;0.02;77.34;101060.13;105720;280;39269;-72
2023/04/28 02:33:42;;;;;;;23.00;14.20;;;;;;;0.03;77.07;101061.17;105361;280;39415;-72
2023/04/28 02:36:16;;;;;;;20.20;13.10;;;;;;;0.03;77.34;101057.91;105200;280;38722;-72
2023/04/28 02:38:51;;;;;;;22.10;13.60;;;;;;;0.05;77.33;101057.95;105675;280;38297;-72
2023/04/28 02:41:25;;;;;;;26.10;13.80;;;;;;;0.04;77.42;101055.35;105292;280;38365;-72
2023/04/28 02:43:59;;;;;;;22.00;13.60;;;;;;;0.03;77.35;101057.73;105238;280;39559;-72
2023/04/28 02:46:33;;;;;;;21.70;12.60;;;;;;;0.01;77.44;101056.84;105326;280;38999;-72
2023/04/28 02:49:07;;;;;;;22.70;13.70;;;;;;;-0.01;77.27;101054.25;105119;280;172589;-73
2023/04/28 02:51:41;;;;;;;18.40;12.90;;;;;;;0.00;77.39;101053.58;105328;280;39667;-73
2023/04/28 02:54:15;;;;;;;24.20;13.80;;;;;;;0.00;77.43;101052.73;105717;280;39028;-73
2023/04/28 02:56:50;;;;;;;23.00;14.00;;;;;;;0.00;77.62;101054.09;105633;280;39790;-73
2023/04/28 02:59:24;;;;;;;23.50;13.90;;;;;;;0.00;77.62;101052.72;105634;280;38230;-73
2023/04/28 03:01:58;;;;;;;21.40;13.80;;;;;;;-0.03;77.59;101056.95;105289;280;38272;-73
2023/04/28 03:04:32;;;;;;;21.90;12.50;;;;;;;-0.05;77.59;101058.48;105268;280;39412;-73
2023/04/28 03:07:06;;;;;;;20.30;12.90;;;;;;;-0.06;77.58;101058.11;105300;280;38847;-73
2023/04/28 03:09:40;;;;;;;24.70;14.30;;;;;;;-0.05;77.80;101054.69;105305;280;38738;-73
2023/04/28 03:12:14;;;;;;;25.30;15.30;;;;;;;-0.04;77.90;101058.84;105318;280;38230;-73
2023/04/28 03:14:48;;;;;;;22.70;14.60;;;;;;;0.01;78.24;101060.46;105293;280;38832;-73
2023/04/28 03:17:22;;;;;;;26.10;14.80;;;;;;;0.04;78.21;101059.98;105292;281;38652;-73
2023/04/28 03:19:56;;;;;;;24.50;15.80;;;;;;;0.04;78.32;101064.09;105062;281;38494;-73
2023/04/28 03:22:30;;;;;;;23.50;13.80;;;;;;;0.06;78.18;101063.61;105523;280;38412;-73
2023/04/28 03:25:04;;;;;;;22.00;14.00;;;;;;;0.10;78.20;101065.23;105548;288;38612;-73
2023/04/28 03:27:38;;;;;;;21.70;14.30;;;;;;;0.15;78.32;101065.83;105263;280;38243;-73
2023/04/28 03:30:14;;;;;;;22.90;13.70;;;;;;;0.18;78.29;101069.63;105287;280;38642;-73
2023/04/28 03:32:48;;;;;;;22.30;14.60;;;;;;;0.25;78.49;101072.33;105576;280;38692;-73
2023/04/28 03:35:21;;;;;;;21.60;14.60;;;;;;;0.31;78.53;101073.95;105219;280;38772;-73
2023/04/28 03:37:55;;;;;;;25.90;14.40;;;;;;;0.33;78.69;101073.80;105249;280;37666;-73
2023/04/28 03:40:29;;;;;;;25.20;14.20;;;;;;;0.34;78.47;101074.52;105260;280;38360;-73
2023/04/28 03:43:03;;;;;;;23.20;13.60;;;;;;;0.38;78.58;101073.20;105278;280;39467;-73
2023/04/28 03:45:37;;;;;;;23.40;14.90;;;;;;;0.48;78.77;101066.48;105261;280;38854;-73
2023/04/28 03:48:11;;;;;;;24.30;14.90;;;;;;;0.57;78.93;101069.18;105234;280;39608;-73
2023/04/28 03:50:45;;;;;;;24.40;14.50;;;;;;;0.64;78.89;101069.27;105245;280;39578;-73
2023/04/28 03:53:19;;;;;;;27.00;14.70;;;;;;;0.68;78.69;101067.09;105262;269;39419;-73
2023/04/28 03:55:53;;;;;;;25.50;15.20;;;;;;;0.69;78.62;101066.42;105203;280;38234;-73
2023/04/28 03:58:27;;;;;;;25.80;15.80;;;;;;;0.77;78.95;101071.35;105254;280;38545;-73
2023/04/28 04:01:02;;;;;;;21.40;13.80;;;;;;;1.24;80.72;101072.27;105287;280;38227;-73
2023/04/28 04:03:36;;;;;;;22.80;14.90;;;;;;;2.11;81.94;101069.99;105264;280;39644;-73
2023/04/28 04:06:12;;;;;;;20.80;14.00;;;;;;;2.86;84.76;101077.69;105549;280;39424;-73
2023/04/28 04:08:47;;;;;;;22.00;14.20;;;;;;;3.15;80.68;101079.89;105250;280;38273;-73
2023/04/28 04:11:21;;;;;;;23.20;13.50;;;;;;;3.01;77.81;101082.42;105252;280;38790;-73
2023/04/28 04:13:55;;;;;;;22.40;13.90;;;;;;;2.78;76.29;101081.45;105236;280;38395;-73
2023/04/28 04:16:30;;;;;;;22.70;15.10;;;;;;;2.55;75.84;101079.76;105565;280;38816;-73
2023/04/28 04:19:03;;;;;;;23.40;14.90;;;;;;;2.35;75.68;101079.80;105072;281;39772;-73
2023/04/28 04:21:37;;;;;;;20.10;14.20;;;;;;;2.16;75.59;101084.14;105286;280;39428;-73
2023/04/28 04:24:11;;;;;;;23.10;14.70;;;;;;;2.00;75.73;101083.66;105521;280;38267;-73
2023/04/28 04:26:46;;;;;;;22.40;14.70;;;;;;;1.92;76.08;101084.28;105541;280;39662;-73
2023/04/28 04:29:20;;;;;;;21.70;14.30;;;;;;;1.91;76.48;101085.66;105078;280;40185;-73
2023/04/28 04:31:54;;;;;;;21.30;14.30;;;;;;;2.28;78.00;101087.67;105536;280;38744;-74
2023/04/28 04:34:28;;;;;;;22.70;14.70;;;;;;;2.79;79.25;101088.52;105291;280;39940;-74
2023/04/28 04:37:02;;;;;;;20.50;14.00;;;;;;;3.46;79.25;101087.74;105278;280;40367;-74
2023/04/28 04:39:37;;;;;;;21.40;15.80;;;;;;;4.17;78.21;101085.58;105101;281;39413;-74
2023/04/28 04:42:11;;;;;;;20.70;14.60;;;;;;;5.23;81.62;101083.05;105270;269;39810;-73
2023/04/28 04:44:45;;;;;;;22.10;14.80;;;;;;;6.48;80.17;101077.16;105259;280;39414;-74
2023/04/28 04:47:19;;;;;;;21.10;14.40;;;;;;;7.66;76.05;101078.65;105472;280;39649;-74
2023/04/28 04:49:54;;;;;;;22.10;14.40;;;;;;;8.66;71.68;101078.75;105265;280;39446;-74
2023/04/28 04:52:28;;;;;;;20.80;13.70;;;;;;;9.57;68.40;101075.30;105507;280;38429;-74
2023/04/28 04:55:02;;;;;;;23.00;14.70;;;;;;;10.47;65.21;101076.63;105261;280;38390;-74
2023/04/28 04:57:36;;;;;;;21.40;14.50;;;;;;;11.43;62.13;101081.78;105260;280;38749;-74
2023/04/28 05:00:12;;;;;;;21.70;14.40;;;;;;;12.28;59.52;101081.53;105266;280;39174;-74
2023/04/28 05:02:46;;;;;;;19.40;14.10;;;;;;;13.22;56.26;101076.11;105509;280;38294;-74
2023/04/28 05:05:20;;;;;;;24.30;14.90;;;;;;;13.95;52.20;101075.55;105270;280;38321;-74
2023/04/28 05:07:54;;;;;;;22.60;14.60;;;;;;;14.52;49.50;101077.55;105054;280;39380;-75
2023/04/28 05:10:28;;;;;;;21.80;15.00;;;;;;;14.67;47.04;101080.23;105264;280;38483;-75
2023/04/28 05:13:03;;;;;;;22.90;14.80;;;;;;;14.66;46.95;101081.88;105291;280;39548;-75
2023/04/28 05:15:37;;;;;;;21.70;15.50;;;;;;;14.77;45.73;101080.85;105307;280;38694;-74
2023/04/28 05:18:12;;;;;;;21.30;14.30;;;;;;;14.94;45.46;101082.23;105292;280;40183;-74
2023/04/28 05:20:47;;;;;;;22.50;15.20;;;;;;;15.04;45.43;101083.52;105553;280;38863;-74
2023/04/28 05:23:22;;;;;;;21.80;14.70;;;;;;;15.14;44.61;101083.23;105279;280;39160;-74
2023/04/28 05:25:56;;;;;;;21.00;15.30;;;;;;;15.32;43.50;101084.54;105272;280;38246;-73
2023/04/28 05:28:30;;;;;;;28.40;15.40;;;;;;;15.66;43.05;101084.36;105296;280;39415;-74
2023/04/28 05:31:04;;;;;;;21.00;14.70;;;;;;;15.74;42.28;101081.50;105207;280;38640;-73
2023/04/28 05:33:39;;;;;;;25.40;15.10;;;;;;;16.11;41.79;101078.31;105539;280;39533;-73
2023/04/28 05:36:15;;;;;;;22.70;14.50;;;;;;;16.94;41.22;101076.83;105522;280;39514;-74
2023/04/28 05:38:50;;;;;;;22.00;14.70;;;;;;;17.70;39.64;101074.85;105211;280;38791;-74
2023/04/28 05:41:27;;;;;;;23.00;15.70;;;;;;;18.17;38.17;101076.89;105036;281;38237;-74
2023/04/28 05:44:01;;;;;;;22.60;14.50;;;;;;;18.79;37.14;101079.95;105515;280;38224;-74
2023/04/28 05:46:36;;;;;;;22.40;14.30;;;;;;;19.35;35.71;101078.04;105413;280;173928;-74
2023/04/28 05:49:11;;;;;;;19.50;14.10;;;;;;;19.91;34.43;101078.91;105223;280;38239;-74
2023/04/28 05:51:47;;;;;;;21.30;14.00;;;;;;;20.44;33.42;101076.05;105217;281;38351;-76
2023/04/28 05:54:22;;;;;;;18.20;13.70;;;;;;;20.99;32.26;101082.90;105221;280;38257;-73
2023/04/28 05:56:57;;;;;;;17.30;14.20;;;;;;;21.40;31.12;101080.52;105177;280;39383;-74
2023/04/28 05:59:31;;;;;;;19.20;13.60;;;;;;;21.73;30.51;101076.20;104881;280;890357;-74
2023/04/28 06:02:06;;;;;;;19.50;14.10;;;;;;;21.80;29.49;101075.98;105195;280;38253;-73
2023/04/28 06:04:40;;;;;;;19.50;13.90;;;;;;;21.91;29.90;101077.99;105526;281;39420;-74
2023/04/28 06:07:14;;;;;;;18.60;12.80;;;;;;;22.38;29.41;101075.08;105542;280;38265;-74
2023/04/28 06:09:48;;;;;;;19.10;13.30;;;;;;;22.68;29.04;101072.96;105220;280;38503;-74
2023/04/28 06:12:22;;;;;;;19.50;13.40;;;;;;;22.89;28.72;101073.80;105221;280;38290;-74
2023/04/28 06:14:57;;;;;;;20.90;12.70;;;;;;;22.86;28.43;101074.70;105060;280;38447;-74
2023/04/28 06:17:32;;;;;;;17.60;12.10;;;;;;;23.09;27.99;101077.73;105313;280;39383;-74
2023/04/28 06:20:09;;;;;;;15.50;11.40;;;;;;;23.44;27.27;101077.08;105282;280;38841;-74
2023/04/28 06:22:43;;;;;;;16.40;11.10;;;;;;;23.94;26.53;101075.84;105281;280;38344;-74
2023/04/28 06:25:17;;;;;;;14.50;11.20;;;;;;;23.98;26.11;101073.59;105258;280;38483;-74
2023/04/28 06:27:51;;;;;;;14.90;11.40;;;;;;;24.07;26.06;101074.05;105532;280;39047;-74
2023/04/28 06:30:25;;;;;;;16.20;11.10;;;;;;;24.22;26.14;101072.42;105276;280;38261;-74
2023/04/28 06:32:59;;;;;;;15.50;10.80;;;;;;;24.43;26.14;101075.27;105256;280;38646;-74
2023/04/28 06:35:35;;;;;;;16.40;11.60;;;;;;;24.76;25.45;101072.63;105291;280;39914;-74
2023/04/28 06:38:09;;;;;;;17.20;11.10;;;;;;;24.86;24.58;101073.54;105237;280;38374;-73
2023/04/28 06:40:44;;;;;;;15.30;11.20;;;;;;;24.96;24.77;101074.80;104616;280;887351;-73
2023/04/28 06:43:18;;;;;;;15.70;10.40;;;;;;;25.20;24.28;101076.13;105542;280;38270;-73
2023/04/28 06:45:53;;;;;;;12.80;8.20;;;;;;;25.60;23.26;101070.98;105124;280;173505;-73
2023/04/28 06:48:27;;;;;;;11.10;8.30;;;;;;;25.57;22.42;101073.50;105218;280;38265;-73
2023/04/28 06:51:01;;;;;;;10.90;7.20;;;;;;;25.77;22.72;101075.15;105519;280;39054;-75
2023/04/28 06:53:37;;;;;;;11.30;8.20;;;;;;;25.84;22.11;101070.54;105204;281;39631;-74
2023/04/28 06:56:11;;;;;;;12.10;8.20;;;;;;;25.35;22.78;101079.27;105265;280;39441;-73
2023/04/28 06:58:46;;;;;;;12.20;7.30;;;;;;;24.98;22.82;101079.16;105234;280;39237;-73
2023/04/28 07:01:20;;;;;;;8.90;6.90;;;;;;;24.65;22.79;101080.58;105026;281;38355;-72
2023/04/28 07:03:54;;;;;;;11.50;8.30;;;;;;;24.09;22.62;101081.58;105277;280;38364;-73
2023/04/28 07:06:30;;;;;;;13.30;7.80;;;;;;;23.39;23.62;101082.60;105259;280;38375;-72
2023/04/28 07:09:04;;;;;;;11.90;7.10;;;;;;;22.93;24.64;101082.91;105239;280;40080;-73
2023/04/28 07:11:39;;;;;;;9.10;7.00;;;;;;;22.73;24.23;101079.10;105305;280;38802;-74
2023/04/28 07:14:13;;;;;;;9.50;6.80;;;;;;;22.60;25.26;101073.91;105307;280;38354;-74
2023/04/28 07:16:47;;;;;;;9.50;6.80;;;;;;;23.05;24.61;101071.99;105281;280;38890;-73
2023/04/28 07:19:24;;;;;;;7.20;4.50;;;;;;;23.66;24.12;101073.51;105297;280;38243;-73
2023/04/28 07:21:57;;;;;;;5.70;3.50;;;;;;;24.12;23.09;101064.89;105292;280;38247;-74
2023/04/28 07:24:31;;;;;;;9.30;5.60;;;;;;;24.86;23.51;101068.40;105270;280;38689;-72
2023/04/28 07:27:06;;;;;;;4.70;3.50;;;;;;;25.32;21.94;101065.10;105290;280;38499;-72
2023/04/28 07:29:40;;;;;;;6.80;3.60;;;;;;;25.72;21.05;101061.13;105551;280;38406;-72
2023/04/28 07:32:14;;;;;;;5.20;3.40;;;;;;;25.90;20.27;101061.13;105303;280;38505;-73
2023/04/28 07:34:48;;;;;;;4.60;3.70;;;;;;;26.27;20.67;101061.63;105583;280;38407;-74
2023/04/28 07:37:23;;;;;;;7.30;4.20;;;;;;;26.63;20.64;101060.00;105251;280;38988;-73
2023/04/28 07:39:58;;;;;;;6.20;3.40;;;;;;;26.89;20.15;101057.06;105296;280;39489;-73
2023/04/28 07:42:32;;;;;;;7.50;4.00;;;;;;;27.42;19.79;101055.27;105538;280;39318;-73
2023/04/28 07:45:11;;;;;;;7.30;3.60;;;;;;;27.75;19.13;101053.66;104561;280;886198;-74
2023/04/28 07:47:46;;;;;;;4.50;3.10;;;;;;;27.10;19.03;101049.03;105330;280;38373;-73
2023/04/28 07:50:19;;;;;;;6.30;3.40;;;;;;;27.01;19.38;101047.96;105259;280;38668;-74
2023/04/28 07:52:54;;;;;;;6.50;3.90;;;;;;;27.18;19.74;101046.84;105321;280;38268;-74
2023/04/28 07:55:28;;;;;;;7.20;3.20;;;;;;;27.67;19.47;101044.22;105299;280;38327;-72
2023/04/28 07:58:02;;;;;;;4.20;2.60;;;;;;;27.89;17.71;101039.81;105569;280;38300;-75
2023/04/28 08:00:36;;;;;;;4.60;3.30;;;;;;;27.92;18.29;101033.43;105282;280;38250;-75
2023/04/28 08:03:10;;;;;;;3.60;2.20;;;;;;;27.70;17.99;101033.55;105248;280;38402;-77
2023/04/28 08:05:44;;;;;;;4.80;1.70;;;;;;;27.39;18.07;101037.80;105288;280;38619;-73
2023/04/28 08:08:19;;;;;;;2.90;1.70;;;;;;;26.87;17.83;101046.16;105252;280;38729;-74
2023/04/28 08:10:53;;;;;;;3.20;2.00;;;;;;;27.08;17.54;101033.33;105243;281;38321;-74
2023/04/28 08:13:29;;;;;;;3.20;1.90;;;;;;;27.25;18.54;101035.62;105551;280;39691;-75
2023/04/28 08:16:04;;;;;;;3.20;1.40;;;;;;;27.72;18.14;101030.22;105225;280;39371;-75
2023/04/28 08:18:39;;;;;;;4.30;2.10;;;;;;;27.55;17.10;101029.30;105215;280;39379;-75
2023/04/28 08:21:13;;;;;;;2.90;2.10;;;;;;;27.16;17.58;101031.10;105563;280;38473;-74
2023/04/28 08:23:48;;;;;;;4.90;2.10;;;;;;;27.50;17.84;101036.16;105259;280;38249;-74
2023/04/28 08:26:23;;;;;;;3.20;2.00;;;;;;;27.91;17.25;101030.66;105276;280;38277;-74
2023/04/28 08:28:58;;;;;;;3.00;2.10;;;;;;;28.21;16.88;101026.36;105234;280;38409;-74
2023/04/28 08:31:31;;;;;;;2.80;1.90;;;;;;;27.58;17.01;101029.70;105228;280;38444;-74
2023/04/28 08:34:06;;;;;;;5.70;2.40;;;;;;;27.00;17.39;101030.91;105202;280;38520;-74
2023/04/28 08:36:40;;;;;;;5.60;2.90;;;;;;;27.16;17.73;101027.68;105254;280;38317;-74
2023/04/28 08:39:14;;;;;;;2.40;1.80;;;;;;;27.27;17.77;101022.48;105286;280;39473;-74
2023/04/28 08:41:48;;;;;;;4.10;2.20;;;;;;;27.69;16.34;101015.54;105553;280;38411;-75
2023/04/28 08:44:23;;;;;;;5.50;2.40;;;;;;;28.02;16.16;101011.61;105229;280;38421;-75
2023/04/28 08:46:58;;;;;;;3.10;2.60;;;;;;;28.39;17.01;101011.23;105034;281;38287;-75
2023/04/28 08:49:36;;;;;;;4.90;2.50;;;;;;;29.02;16.37;101008.67;105144;280;173255;-75
2023/04/28 08:52:13;;;;;;;;;;;;;;;29.41;15.33;101005.33;105561;280;39450;-75
2023/04/28 08:54:47;;;;;;;2.20;1.60;;;;;;;29.73;15.18;100999.77;104502;274;884025;-75
2023/04/28 08:57:21;;;;;;;3.40;2.00;;;;;;;29.88;14.97;101005.85;105294;280;38268;-75
2023/04/28 08:59:55;;;;;;;2.10;1.50;;;;;;;29.78;13.99;101004.02;105052;281;39425;-75
2023/04/28 09:02:30;;;;;;;2.40;1.30;;;;;;;28.73;13.82;101003.92;105253;280;39062;-75
2023/04/28 09:05:04;;;;;;;1.40;1.20;;;;;;;27.24;14.01;101005.27;105223;280;38681;-75
2023/04/28 09:07:39;;;;;;;3.40;1.40;;;;;;;25.75;15.06;101002.39;105202;280;39465;-75
2023/04/28 09:10:24;;;;;;;3.50;1.60;;;;;;;25.11;17.12;101009.81;105531;280;39670;-75
2023/04/28 09:12:58;;;;;;;2.10;1.30;;;;;;;25.50;16.81;101003.42;105245;280;38759;-74
2023/04/28 09:15:34;;;;;;;2.90;1.60;;;;;;;25.88;17.11;100999.39;105032;281;38515;-74
2023/04/28 09:18:09;;;;;;;7.10;2.10;;;;;;;26.33;16.52;100994.89;105259;280;38779;-74
2023/04/28 09:20:43;;;;;;;2.60;1.90;;;;;;;26.62;16.53;100990.17;105269;280;39383;-74
2023/04/28 09:23:21;;;;;;;3.30;1.50;;;;;;;26.77;15.65;100993.20;105215;280;38811;-74
2023/04/28 09:26:02;;;;;;;3.10;1.70;;;;;;;26.46;16.42;100993.79;105297;280;40422;-74
2023/04/28 09:28:38;;;;;;;2.80;2.00;;;;;;;26.35;16.68;100985.14;105541;280;38664;-74
2023/04/28 09:31:26;;;;;;;3.20;1.70;;;;;;;26.15;16.82;100986.16;105285;280;38271;-74
2023/04/28 09:34:02;;;;;;;;;;;;;;;25.87;17.03;100979.53;105270;280;38840;-74
2023/04/28 09:36:36;;;;;;;2.60;1.70;;;;;;;25.42;17.70;100978.08;104833;280;524676;-74
2023/04/28 09:39:10;;;;;;;3.00;1.90;;;;;;;25.11;17.06;100981.77;105203;280;38869;-74
2023/04/28 09:41:45;;;;;;;3.80;2.10;;;;;;;24.76;17.25;100976.80;105221;280;39281;-74
2023/04/28 09:44:20;;;;;;;2.80;1.70;;;;;;;24.40;17.70;100975.81;105509;280;38621;-74
2023/04/28 09:46:54;;;;;;;47.00;11.30;;;;;;;24.04;18.18;100974.83;105057;280;39472;-74
2023/04/28 09:49:28;;;;;;;20.40;6.10;;;;;;;23.88;18.64;100971.71;105189;280;38220;-74
2023/04/28 09:52:16;;;;;;;6.00;2.70;;;;;;;23.69;18.98;100975.29;105538;280;38468;-74
2023/04/28 09:54:51;;;;;;;10.80;2.40;;;;;;;23.29;18.69;100973.59;105205;280;39643;-74
2023/04/28 09:57:26;;;;;;;7.20;2.40;;;;;;;23.03;19.05;100972.52;105218;281;38281;-74
2023/04/28 10:00:00;;;;;;;6.80;2.50;;;;;;;22.82;19.23;100969.91;105238;280;38230;-74
2023/04/28 10:02:36;;;;;;;5.80;2.60;;;;;;;22.53;18.78;100966.52;105211;280;38581;-74
2023/04/28 10:05:11;;;;;;;4.00;2.20;;;;;;;21.96;19.03;100959.52;105215;280;39545;-74
2023/04/28 10:07:45;;;;;;;4.30;2.60;;;;;;;21.70;19.45;100955.52;105186;280;38856;-74
2023/04/28 10:10:19;;;;;;;4.30;2.40;;;;;;;21.75;20.45;100945.89;105560;280;39258;-75
2023/04/28 10:12:53;;;;;;;3.80;2.40;;;;;;;21.58;19.97;100944.82;105197;280;38928;-76
2023/04/28 10:15:27;;;;;;;4.20;2.60;;;;;;;21.19;20.47;100941.83;104907;280;895052;-74
2023/04/28 10:18:01;;;;;;;3.00;2.50;;;;;;;21.01;20.76;100939.96;105530;280;38278;-74
2023/04/28 10:20:35;;;;;;;10.50;3.10;;;;;;;20.97;20.70;100933.70;105093;280;188281;-74
2023/04/28 10:23:35;;;;;;;5.20;2.60;;;;;;;20.93;21.10;100931.36;105553;280;39419;-74
2023/04/28 10:26:14;;;;;;;5.00;2.70;;;;;;;20.62;21.38;100936.73;105228;280;38451;-74
2023/04/28 10:28:50;;;;;;;;;;;;;;;20.19;21.36;100937.42;105536;280;38479;-75
2023/04/28 10:31:24;;;;;;;4.00;2.50;;;;;;;19.62;22.21;100937.04;105038;281;38669;-75
2023/04/28 10:33:59;;;;;;;4.80;2.80;;;;;;;19.33;22.89;100933.11;105153;280;38266;-75
2023/04/28 10:36:54;;;;;;;4.30;2.70;;;;;;;19.44;22.49;100932.00;105097;273;171440;-75
2023/04/28 10:39:28;;;;;;;3.60;2.60;;;;;;;19.61;22.72;100925.08;105222;280;38332;-75
2023/04/28 10:42:03;;;;;;;3.50;2.60;;;;;;;19.74;21.92;100924.91;105207;280;38244;-75
2023/04/28 10:44:49;;;;;;;4.70;2.60;;;;;;;19.76;22.14;100926.73;105213;280;38227;-75
2023/04/28 10:47:23;;;;;;;4.40;2.70;;;;;;;19.85;21.44;100930.23;105194;280;39022;-74
2023/04/28 10:50:13;;;;;;;4.80;3.30;;;;;;;19.68;20.99;100924.95;105534;280;38536;-74
2023/04/28 10:52:53;;;;;;;4.80;2.90;;;;;;;19.59;21.83;100921.82;105504;281;38276;-74
2023/04/28 10:55:36;;;;;;;4.30;2.80;;;;;;;19.40;21.32;100919.20;105545;280;39405;-74
2023/04/28 10:58:40;;;;;;;4.50;3.00;;;;;;;19.04;21.59;100915.20;105186;280;39465;-74
2023/04/28 11:01:39;;;;;;;6.00;3.20;;;;;;;18.94;21.39;100905.20;105038;281;38237;-75
2023/04/28 11:04:14;;;;;;;4.80;2.20;;;;;;;18.67;22.83;100903.76;105034;280;173998;-75
2023/04/28 11:07:08;;;;;;;3.50;2.60;;;;;;;18.62;23.23;100906.04;105264;269;38226;-75
2023/04/28 11:09:54;;;;;;;4.20;2.60;;;;;;;18.42;22.54;100910.80;105262;280;39288;-75
2023/04/28 11:12:28;;;;;;;4.90;3.00;;;;;;;18.14;23.20;100907.39;105262;280;38440;-75
2023/04/28 11:15:14;;;;;;;2.80;2.40;;;;;;;18.00;23.98;100913.71;105263;280;38626;-76
2023/04/28 11:17:48;;;;;;;4.40;2.50;;;;;;;17.93;24.04;100910.06;105260;280;38613;-75
2023/04/28 11:20:22;;;;;;;3.50;2.30;;;;;;;17.74;23.22;100905.92;105267;280;39431;-75
2023/04/28 11:22:57;;;;;;;9.70;2.90;;;;;;;17.55;23.58;100898.58;105063;281;40005;-75
2023/04/28 11:25:31;;;;;;;4.50;2.50;;;;;;;17.44;23.39;100895.10;105282;280;38327;-75
2023/04/28 11:28:08;;;;;;;4.40;2.70;;;;;;;17.26;23.48;100890.91;105247;280;38344;-75
2023/04/28 11:30:42;;;;;;;4.40;2.10;;;;;;;17.06;23.32;100887.09;105239;280;38228;-74
2023/04/28 11:33:16;;;;;;;6.20;3.00;;;;;;;16.96;23.62;100883.41;105526;280;39806;-74
2023/04/28 11:35:51;;;;;;;5.30;2.80;;;;;;;16.75;23.84;100882.45;105285;280;38348;-74
2023/04/28 11:38:25;;;;;;;4.40;2.40;;;;;;;16.65;24.55;100884.95;105056;280;39580;-74
2023/04/28 11:41:03;;;;;;;4.60;2.60;;;;;;;16.61;24.68;100878.62;105280;280;39685;-75
2023/04/28 11:43:40;;;;;;;3.80;2.30;;;;;;;16.59;24.70;100878.59;105582;280;39393;-74
2023/04/28 11:46:19;;;;;;;4.30;2.50;;;;;;;16.52;24.53;100874.36;105260;280;39414;-75
2023/04/28 11:49:01;;;;;;;3.50;2.50;;;;;;;16.54;24.55;100873.08;105278;280;38574;-77
2023/04/28 11:51:40;;;;;;;4.70;2.60;;;;;;;16.62;25.34;100876.52;105284;280;39433;-74
2023/04/28 11:54:14;;;;;;;12.60;4.30;;;;;;;16.68;25.65;100877.51;105559;280;39449;-74
2023/04/28 11:56:49;;;;;;;14.40;4.80;;;;;;;16.77;26.03;100874.29;105250;280;38454;-74